Main page
METAR-TAF:

METAR-TAF

Airports :

Toulouse, France

Toulouse–Blagnac Airport

latitude: 43-38N, longitude: 001-22E, elevation: 152 m

Current weather observation

The report was made 25 minutes ago, at 03:30 UTC
Wind 3 kt from the Northwest
Temperature 10°C
Humidity 76%
Pressure 1023 hPa
Visibility 10 km or more
no clouds below 1500 m and no cumulonimbus

METAR: LFBO 200330Z AUTO 32003KT CAVOK 10/06 Q1023 TEMPO 4000 BR

Time: 05:55 (03:55 UTC)

Forecast

The report was made 4 hours and 55 minutes ago, at 23:00 UTC
Forecast valid from 20 at 00 UTC to 21 at 06 UTC
Wind 6 kt from the Northwest
Visibility 10 km or more
no clouds below 1500 m and no cumulonimbus
Probability 30% :
Temporary
from 20 at 02 UTC to 20 at 06 UTC
Visibility: 4000 m
mist
Temporary
from 20 at 09 UTC to 20 at 12 UTC
Scattered clouds at a height of 3500 ft
Becoming
from 20 at 18 UTC to 20 at 20 UTC
Wind 2 kt from variable directions

TAF: LFBO 192300Z 2000/2106 32006KT CAVOK PROB30 TEMPO 2002/2006 4000 BR TEMPO 2009/2012 SCT035 BECMG 2018/2020 VRB02KT

Weather observations and forecasts of more than 4000 airports (METAR and TAF reports).

The available stations are represented by yellow and red dots on the map.

Hover mouse over dot to see the name of the station.

Then click to see weather observations and forecasts.

To change the map : click on the green buttons with a black cross to zoom in, on the green button with a dash to zoom out, or on the green arrows for adjacent maps.


METAR-TAF: